Time;durP1;ratioP1;P1;durP2;ratioP2;P2;SDS_P1;SDS_P2;PMS_P1;PMS_P2;Temp;Humidity;BMP_temperature;BMP_pressure;BME280_temperature;BME280_humidity;BME280_pressure;Samples;Min_cycle;Max_cycle;Signal;HPM_P1;HPM_P2
2023/04/16 00:03:13;;;;;;;10.93;2.85;;;;;;;6.46;100.00;102025.97;4930590;23;20055;-90
2023/04/16 00:05:45;;;;;;;9.75;2.92;;;;;;;6.65;100.00;102051.03;4962269;29;20577;-90
2023/04/16 00:08:10;;;;;;;7.05;3.10;;;;;;;6.60;100.00;102034.00;4948556;29;20036;-91
2023/04/16 00:11:07;;;;;;;13.53;3.20;;;;;;;6.46;100.00;102028.66;4952517;29;20066;-89
2023/04/16 00:13:44;;;;;;;7.50;3.08;;;;;;;6.46;100.00;102025.97;4969592;28;20071;-90
2023/04/16 00:16:18;;;;;;;16.58;3.45;;;;;;;6.57;100.00;102034.44;4976748;23;20094;-91
2023/04/16 00:19:09;;;;;;;10.70;3.53;;;;;;;6.47;100.00;102024.97;4930389;29;20054;-90
2023/04/16 00:22:12;;;;;;;;;;;;;;;;;;;;;
2023/04/16 00:25:13;;;;;;;10.88;3.60;;;;;;;6.64;100.00;102053.88;4872642;29;20047;-91
2023/04/16 00:28:04;;;;;;;9.80;3.35;;;;;;;6.48;100.00;102033.78;4909407;29;20212;-91
2023/04/16 00:30:36;;;;;;;8.75;3.45;;;;;;;6.47;100.00;102029.47;4894797;29;20066;-90
2023/04/16 00:33:08;;;;;;;14.68;3.20;;;;;;;6.48;100.00;102023.94;4961870;23;20458;-91
2023/04/16 05:07:12;;;;;;;21.63;9.02;;;;;;;6.95;100.00;102111.13;4996262;28;20054;-95
2023/04/16 05:19:51;;;;;;;20.73;9.00;;;;;;;6.88;100.00;102110.31;5014101;28;20145;-93
2023/04/16 05:58:32;;;;;;;24.73;9.43;;;;;;;6.86;100.00;102115.03;5867655;23;20054;-88
2023/04/16 06:01:13;;;;;;;27.48;9.57;;;;;;;6.96;100.00;102131.44;5114595;23;20009;-89
2023/04/16 06:03:38;;;;;;;26.77;9.48;;;;;;;7.03;100.00;102137.59;4973831;28;20041;-90
2023/04/16 06:06:05;;;;;;;27.00;10.27;;;;;;;7.11;100.00;102149.94;4972345;28;20039;-90
2023/04/16 06:08:33;;;;;;;24.48;10.38;;;;;;;6.95;100.00;102127.13;4964665;28;20392;-90
2023/04/16 06:11:04;;;;;;;28.98;10.60;;;;;;;7.06;100.00;102136.38;4959475;28;20544;-90
2023/04/16 06:13:32;;;;;;;25.90;10.23;;;;;;;7.08;100.00;102135.16;4972308;28;20644;-89
2023/04/16 06:15:58;;;;;;;32.53;11.23;;;;;;;6.97;100.00;102123.25;4971469;28;20027;-90
2023/04/16 06:18:26;;;;;;;32.30;11.43;;;;;;;7.15;100.00;102167.16;4973883;28;20368;-93
2023/04/16 06:23:29;;;;;;;38.35;10.45;;;;;;;7.15;100.00;102151.16;4164340;26;20050;-92
2023/04/16 06:26:22;;;;;;;27.30;12.30;;;;;;;7.16;100.00;102157.31;4988294;28;20453;-92
2023/04/16 06:31:53;;;;;;;32.60;10.33;;;;;;;7.01;100.00;102139.66;5002776;23;20057;-92
2023/04/16 06:34:32;;;;;;;28.20;11.30;;;;;;;7.05;100.00;102145.38;4974421;28;20345;-92
2023/04/16 06:37:01;;;;;;;24.75;10.77;;;;;;;7.01;100.00;102131.66;4991354;28;20031;-92
2023/04/16 06:39:27;;;;;;;26.30;11.68;;;;;;;7.15;100.00;102161.00;4989777;28;20027;-90
2023/04/16 06:42:01;;;;;;;27.60;10.93;;;;;;;7.22;100.00;102170.66;4990755;28;20037;-91
2023/04/16 06:44:39;;;;;;;27.53;11.07;;;;;;;7.27;100.00;102175.41;5001748;28;20015;-93
2023/04/16 06:47:20;;;;;;;31.52;11.60;;;;;;;7.19;100.00;102167.56;5010140;28;20027;-91
2023/04/16 06:50:04;;;;;;;30.90;11.15;;;;;;;7.07;100.00;102149.50;4994756;28;20049;-89
2023/04/16 06:52:39;;;;;;;30.63;11.85;;;;;;;7.21;100.00;102170.88;4992934;28;20038;-89
2023/04/16 06:55:35;;;;;;;29.88;10.88;;;;;;;7.31;100.00;102186.47;4992761;28;20057;-90
2023/04/16 06:58:00;;;;;;;32.53;11.95;;;;;;;7.26;100.00;102173.75;4991130;28;20134;-88
2023/04/16 07:00:38;;;;;;;25.20;10.30;;;;;;;7.35;100.00;102198.38;4986983;28;20110;-91
2023/04/16 07:03:13;;;;;;;30.60;11.18;;;;;;;7.24;100.00;102176.59;4991022;28;20018;-89
2023/04/16 07:05:41;;;;;;;36.17;11.60;;;;;;;7.30;100.00;102185.66;4991561;28;20026;-89
2023/04/16 07:08:08;;;;;;;32.88;12.00;;;;;;;7.39;100.00;102197.78;4989478;28;20029;-90
2023/04/16 07:10:33;;;;;;;31.88;11.05;;;;;;;7.43;100.00;102201.69;4988113;28;20069;-89
2023/04/16 07:13:00;;;;;;;27.67;11.73;;;;;;;7.40;100.00;102190.56;4990049;28;20674;-91
2023/04/16 07:16:15;;;;;;;30.40;11.15;;;;;;;7.48;100.00;102200.25;4992548;28;20050;-90
2023/04/16 07:18:40;;;;;;;31.77;11.57;;;;;;;7.47;100.00;102210.09;4992543;28;20034;-90
2023/04/16 07:21:06;;;;;;;37.50;11.47;;;;;;;7.52;100.00;102214.81;4992534;28;20026;-89
2023/04/16 07:23:31;;;;;;;35.30;11.47;;;;;;;7.54;100.00;102212.75;4995412;28;20117;-89
2023/04/16 07:25:56;;;;;;;39.10;11.47;;;;;;;7.52;100.00;102215.66;4992319;28;20026;-89
2023/04/16 07:28:24;;;;;;;27.97;11.10;;;;;;;7.49;100.00;102210.72;4973953;28;20470;-90
2023/04/16 07:30:49;;;;;;;33.13;12.02;;;;;;;7.54;100.00;102218.09;4975485;28;20031;-89
2023/04/16 07:33:14;;;;;;;33.73;11.73;;;;;;;7.50;100.00;102214.19;4975035;28;20084;-89
2023/04/16 07:35:40;;;;;;;33.20;12.00;;;;;;;7.51;100.00;102216.66;4978686;28;20331;-88
2023/04/16 07:38:05;;;;;;;31.60;12.20;;;;;;;7.52;100.00;102222.81;4978751;28;20035;-89
2023/04/16 07:40:32;;;;;;;33.83;12.80;;;;;;;7.51;100.00;102219.34;4979509;28;20034;-88
2023/04/16 07:42:57;;;;;;;34.80;13.30;;;;;;;7.57;100.00;102231.03;4987601;28;20029;-88
2023/04/16 07:45:23;;;;;;;38.23;12.50;;;;;;;7.57;100.00;102233.69;4997910;28;20027;-89
2023/04/16 07:47:48;;;;;;;35.53;12.37;;;;;;;7.61;100.00;102228.78;4999991;28;20247;-90
2023/04/16 07:50:15;;;;;;;34.05;12.73;;;;;;;7.64;100.00;102225.69;5001692;28;20069;-88
2023/04/16 07:52:41;;;;;;;36.93;13.07;;;;;;;7.67;100.00;102238.63;4999887;28;20022;-90
2023/04/16 07:55:07;;;;;;;35.87;13.20;;;;;;;7.68;100.00;102242.94;4999383;28;20300;-90
2023/04/16 07:57:33;;;;;;;42.63;13.68;;;;;;;7.65;100.00;102246.03;5012790;28;20014;-90
2023/04/16 08:00:00;;;;;;;41.05;13.95;;;;;;;7.65;100.00;102240.69;5002711;28;20027;-92
2023/04/16 08:02:26;;;;;;;34.67;12.40;;;;;;;7.67;100.00;102242.13;4996490;28;20030;-93
2023/04/16 08:04:51;;;;;;;39.55;13.90;;;;;;;7.69;100.00;102241.94;4991804;28;20025;-91
2023/04/16 08:07:17;;;;;;;45.23;15.03;;;;;;;7.68;100.00;102253.63;4994059;28;20440;-91
2023/04/16 08:10:02;;;;;;;35.73;13.60;;;;;;;7.71;100.00;102256.69;4997533;28;20037;-92
2023/04/16 08:20:50;;;;;;;47.80;14.25;;;;;;;7.82;100.00;102257.94;5009667;28;20061;-92
2023/04/16 08:23:21;;;;;;;39.50;13.33;;;;;;;7.93;100.00;102275.22;5010893;28;20037;-92
2023/04/16 08:25:47;;;;;;;43.20;13.70;;;;;;;7.80;100.00;102253.84;4995222;28;20297;-92
2023/04/16 08:28:25;;;;;;;35.92;13.50;;;;;;;7.99;100.00;102279.75;5000535;28;20057;-90
2023/04/16 08:30:59;;;;;;;39.85;13.60;;;;;;;7.93;100.00;102266.38;4992571;28;20090;-90
2023/04/16 08:33:43;;;;;;;38.10;13.10;;;;;;;7.93;100.00;102261.06;5002596;28;20085;-91
2023/04/16 08:36:17;;;;;;;39.53;12.87;;;;;;;8.00;100.00;102265.38;5004588;28;20332;-93
2023/04/16 08:38:53;;;;;;;;;;;;;;;;;;;;;
2023/04/16 08:41:20;;;;;;;37.75;13.73;;;;;;;8.17;100.00;102268.44;4995617;28;20663;-92
2023/04/16 08:43:50;;;;;;;30.08;12.43;;;;;;;8.20;100.00;102269.88;5016382;28;20411;-90
2023/04/16 08:46:16;;;;;;;31.70;13.05;;;;;;;8.30;100.00;102288.16;5021141;28;20035;-90
2023/04/16 08:48:44;;;;;;;35.40;12.20;;;;;;;8.30;100.00;102282.81;5020783;28;21580;-90
2023/04/16 08:51:09;;;;;;;31.73;12.83;;;;;;;8.32;100.00;102288.75;4997924;28;20145;-89
2023/04/16 08:53:44;;;;;;;31.03;12.93;;;;;;;8.15;100.00;102270.47;4999944;28;20298;-91
2023/04/16 08:56:11;;;;;;;34.25;13.18;;;;;;;8.35;100.00;102291.00;4994075;28;20046;-90
2023/04/16 08:58:37;;;;;;;29.52;12.07;;;;;;;8.41;100.00;102289.34;4995863;28;20092;-88
2023/04/16 09:01:03;;;;;;;37.47;12.63;;;;;;;8.45;100.00;102290.59;4987028;28;20026;-88
2023/04/16 09:03:31;;;;;;;34.08;12.63;;;;;;;8.56;100.00;102295.34;5000596;28;20398;-91
2023/04/16 09:05:58;;;;;;;36.83;12.95;;;;;;;8.61;100.00;102303.53;4989459;28;20177;-87
2023/04/16 09:08:24;;;;;;;37.33;12.83;;;;;;;8.65;100.00;102290.59;4991568;28;20035;-88
2023/04/16 09:10:50;;;;;;;35.20;12.20;;;;;;;8.69;100.00;102299.84;4991078;28;20305;-90
2023/04/16 09:13:19;;;;;;;34.30;12.38;;;;;;;8.67;100.00;102304.59;5004133;28;20117;-92
2023/04/16 09:15:44;;;;;;;40.20;12.60;;;;;;;8.69;100.00;102304.38;5005436;28;20034;-89
2023/04/16 09:18:11;;;;;;;32.70;12.50;;;;;;;8.68;100.00;102302.72;5008425;28;20053;-89
2023/04/16 09:20:37;;;;;;;38.03;12.60;;;;;;;8.70;100.00;102309.50;5005801;28;20037;-91
2023/04/16 09:23:02;;;;;;;33.43;12.27;;;;;;;8.69;100.00;102305.16;5006576;28;20428;-88
2023/04/16 09:25:32;;;;;;;36.67;13.20;;;;;;;8.75;100.00;102308.88;5003973;28;20062;-90
2023/04/16 09:27:57;;;;;;;29.90;12.60;;;;;;;8.78;100.00;102314.63;4993867;28;20030;-89
2023/04/16 09:30:26;;;;;;;36.23;12.87;;;;;;;8.79;100.00;102315.44;4993879;28;20100;-90
2023/04/16 09:33:15;;;;;;;33.63;12.95;;;;;;;8.79;100.00;102323.44;4994406;28;20030;-88
2023/04/16 09:35:48;;;;;;;32.45;12.70;;;;;;;8.75;100.00;102324.91;4994142;28;20054;-90
2023/04/16 09:38:14;;;;;;;34.13;13.30;;;;;;;8.73;100.00;102326.97;4995633;28;20049;-89
2023/04/16 09:40:39;;;;;;;32.70;13.07;;;;;;;8.81;100.00;102326.75;4996783;28;20274;-93
2023/04/16 09:48:26;;;;;;;33.45;13.48;;;;;;;8.68;100.00;102314.22;5225378;23;20058;-93
2023/04/16 09:50:55;;;;;;;36.72;13.82;;;;;;;8.74;100.00;102328.63;4994107;28;20034;-96
2023/04/16 09:54:00;;;;;;;29.73;13.55;;;;;;;8.80;100.00;102341.13;4993464;28;20030;-92
2023/04/16 09:56:26;;;;;;;35.58;13.20;;;;;;;8.71;100.00;102321.03;4994842;28;20034;-92
2023/04/16 09:59:05;;;;;;;33.67;12.70;;;;;;;8.74;100.00;102326.75;4993960;28;20111;-92
2023/04/16 10:01:30;;;;;;;36.92;13.23;;;;;;;8.75;100.00;102319.56;5010006;23;20042;-92
2023/04/16 10:03:57;;;;;;;27.37;12.47;;;;;;;8.87;100.00;102333.09;4994115;28;20470;-92
2023/04/16 10:06:28;;;;;;;29.83;13.23;;;;;;;8.89;100.00;102323.03;4997772;28;20478;-90
2023/04/16 10:08:57;;;;;;;36.33;13.85;;;;;;;9.07;100.00;102341.88;4993184;28;20390;-91
2023/04/16 10:11:23;;;;;;;35.10;13.90;;;;;;;9.13;100.00;102345.56;4997791;28;20474;-89
2023/04/16 10:13:49;;;;;;;28.57;12.53;;;;;;;9.18;100.00;102344.97;5009269;28;20028;-91
2023/04/16 10:16:14;;;;;;;34.37;13.00;;;;;;;9.19;100.00;102347.41;5009379;28;20368;-91
2023/04/16 10:18:43;;;;;;;30.35;13.88;;;;;;;9.15;100.00;102337.34;5007444;28;20029;-91
2023/04/16 10:21:11;;;;;;;31.57;13.20;;;;;;;9.20;100.00;102343.72;5013344;28;20029;-91
2023/04/16 10:23:38;;;;;;;37.20;13.87;;;;;;;9.19;100.00;102344.75;5009256;28;20293;-91
2023/04/16 10:26:04;;;;;;;36.80;13.63;;;;;;;9.28;100.00;102344.50;4993837;28;20712;-91
2023/04/16 10:28:30;;;;;;;37.60;14.98;;;;;;;9.33;100.00;102350.03;4980592;28;20159;-90
2023/04/16 10:31:01;;;;;;;33.00;14.45;;;;;;;9.34;100.00;102349.00;4994250;28;20117;-90
2023/04/16 10:33:29;;;;;;;29.60;14.73;;;;;;;9.38;100.00;102350.22;5016181;28;20066;-90
2023/04/16 10:36:07;;;;;;;32.47;14.15;;;;;;;9.42;100.00;102354.13;5015964;28;20045;-91
2023/04/16 10:38:32;;;;;;;34.58;13.38;;;;;;;9.39;100.00;102351.88;4994362;28;20097;-90
2023/04/16 10:43:24;;;;;;;28.25;13.27;;;;;;;9.53;100.00;102353.44;4992031;23;20039;-91
2023/04/16 10:45:49;;;;;;;31.70;13.52;;;;;;;9.55;100.00;102362.09;5000600;28;20061;-90
2023/04/16 10:48:17;;;;;;;28.50;14.10;;;;;;;9.54;100.00;102360.44;5011452;28;20030;-92
2023/04/16 10:50:54;;;;;;;31.25;14.00;;;;;;;9.60;100.00;102364.13;5016887;28;20034;-92
2023/04/16 10:53:23;;;;;;;37.95;13.40;;;;;;;9.64;100.00;102362.66;4988768;28;20034;-91
2023/04/16 10:55:56;;;;;;;30.42;13.98;;;;;;;9.63;100.00;102354.84;4994288;28;20394;-91
2023/04/16 10:59:03;;;;;;;28.37;13.00;;;;;;;9.60;100.00;102356.09;4989664;23;20538;-90
2023/04/16 11:04:49;;;;;;;30.67;12.45;;;;;;;9.70;100.00;102359.13;4968826;28;20180;-89
2023/04/16 11:08:07;;;;;;;29.43;12.30;;;;;;;9.67;100.00;102337.34;4975507;28;20055;-89
2023/04/16 11:10:26;;;;;;;29.63;12.73;;;;;;;9.73;100.00;102349.84;4957911;28;20101;-89
2023/04/16 11:12:53;;;;;;;29.13;13.05;;;;;;;9.71;100.00;102343.88;4976224;28;20026;-88
2023/04/16 11:15:32;;;;;;;29.13;13.82;;;;;;;9.66;100.00;102338.38;4989656;28;20058;-89
2023/04/16 11:18:05;;;;;;;25.80;12.63;;;;;;;9.83;100.00;102365.44;4987065;28;20026;-90
2023/04/16 11:23:19;;;;;;;26.92;12.30;;;;;;;9.82;100.00;102358.44;5013480;28;20050;-90
2023/04/16 11:25:45;;;;;;;27.97;11.87;;;;;;;9.82;100.00;102356.59;5005682;28;20035;-90
2023/04/16 11:28:13;;;;;;;25.43;13.00;;;;;;;9.84;100.00;102353.69;4991185;28;20450;-89
2023/04/16 11:30:39;;;;;;;28.33;12.70;;;;;;;9.91;100.00;102361.69;5002493;28;20122;-90
2023/04/16 11:33:07;;;;;;;29.13;12.45;;;;;;;9.95;100.00;102357.56;5011416;28;20042;-90
2023/04/16 11:35:32;;;;;;;23.98;11.40;;;;;;;9.98;100.00;102359.81;5009021;28;20045;-89
2023/04/16 11:37:58;;;;;;;26.97;11.93;;;;;;;10.00;100.00;102366.56;5006099;28;20030;-88
2023/04/16 11:40:24;;;;;;;24.43;11.93;;;;;;;10.01;100.00;102359.38;5004897;28;20046;-89
2023/04/16 11:42:50;;;;;;;25.38;11.75;;;;;;;10.15;100.00;102360.09;5002548;28;20105;-88
2023/04/16 11:45:17;;;;;;;22.20;11.17;;;;;;;10.33;100.00;102356.66;5004564;28;20017;-89
2023/04/16 11:47:46;;;;;;;18.05;10.90;;;;;;;10.54;100.00;102360.03;5005917;28;20098;-89
2023/04/16 11:50:19;;;;;;;25.80;11.00;;;;;;;10.77;100.00;102366.63;5001663;28;20026;-89
2023/04/16 11:52:46;;;;;;;21.30;10.65;;;;;;;10.88;100.00;102365.88;4999414;28;20026;-90
2023/04/16 11:55:11;;;;;;;20.60;10.68;;;;;;;10.69;100.00;102365.88;4997127;28;20026;-89
2023/04/16 11:57:37;;;;;;;21.10;10.43;;;;;;;10.54;100.00;102368.06;5000847;28;20029;-88
2023/04/16 12:00:04;;;;;;;18.77;10.07;;;;;;;10.53;100.00;102369.91;4996299;28;20491;-90
2023/04/16 12:02:44;;;;;;;20.42;9.95;;;;;;;10.63;100.00;102382.00;4997193;28;20031;-90
2023/04/16 12:05:33;;;;;;;18.48;9.95;;;;;;;10.57;100.00;102386.41;5002419;28;20034;-89
2023/04/16 12:08:29;;;;;;;19.83;10.43;;;;;;;10.51;100.00;102385.38;4977221;28;20117;-88
2023/04/16 12:10:57;;;;;;;17.87;9.77;;;;;;;10.56;100.00;102382.88;4991413;28;20302;-89
2023/04/16 12:13:23;;;;;;;19.60;9.45;;;;;;;10.62;100.00;102391.91;4975228;28;20482;-86
2023/04/16 12:15:53;;;;;;;19.17;10.63;;;;;;;10.64;100.00;102402.41;4999363;28;20036;-88
2023/04/16 12:18:21;;;;;;;18.05;9.38;;;;;;;10.66;100.00;102389.63;4981373;28;20121;-88
2023/04/16 12:20:46;;;;;;;17.33;9.43;;;;;;;10.66;100.00;102398.47;4995784;28;20074;-90
2023/04/16 12:23:29;;;;;;;21.20;9.93;;;;;;;10.65;100.00;102398.69;4997991;28;20417;-91
2023/04/16 12:25:58;;;;;;;16.50;9.37;;;;;;;10.52;100.00;102396.94;5011486;28;20320;-88
2023/04/16 12:28:31;;;;;;;18.60;10.27;;;;;;;10.61;100.00;102400.97;4988037;28;20612;-88
2023/04/16 12:30:56;;;;;;;19.20;10.32;;;;;;;10.70;100.00;102397.00;4974691;28;20450;-89
2023/04/16 12:33:22;;;;;;;17.00;9.67;;;;;;;10.83;100.00;102397.91;4993529;28;20014;-90
2023/04/16 12:35:47;;;;;;;16.50;9.77;;;;;;;10.87;100.00;102394.56;5012435;28;20117;-90
2023/04/16 12:38:14;;;;;;;17.07;9.90;;;;;;;10.81;100.00;102390.09;4977298;28;20026;-91
2023/04/16 12:40:39;;;;;;;22.42;10.10;;;;;;;10.93;100.00;102387.50;5015656;23;20030;-93
2023/04/16 12:43:24;;;;;;;15.43;9.43;;;;;;;11.18;100.00;102375.88;4974993;28;20099;-91
2023/04/16 12:46:02;;;;;;;18.65;9.63;;;;;;;11.35;100.00;102362.69;4991551;28;20034;-92
2023/04/16 12:54:51;;;;;;;18.33;8.88;;;;;;;11.90;100.00;102369.78;4985268;28;20050;-91
2023/04/16 12:57:16;;;;;;;19.13;8.70;;;;;;;11.89;100.00;102378.91;4975185;28;20034;-90
2023/04/16 12:59:42;;;;;;;18.03;9.37;;;;;;;11.87;100.00;102390.94;4974568;28;20042;-91
2023/04/16 13:02:08;;;;;;;16.87;8.93;;;;;;;11.80;100.00;102370.34;5038952;22;20142;-90
2023/04/16 13:04:33;;;;;;;14.87;9.17;;;;;;;11.73;100.00;102380.38;4993885;28;20424;-92
2023/04/16 13:07:00;;;;;;;13.17;8.80;;;;;;;11.63;100.00;102406.94;4997054;28;20117;-91
2023/04/16 13:09:25;;;;;;;14.80;9.00;;;;;;;11.43;100.00;102397.25;4997275;28;20034;-89
2023/04/16 13:11:51;;;;;;;19.08;9.00;;;;;;;11.27;100.00;102390.66;4995367;28;20026;-91
2023/04/16 13:14:16;;;;;;;14.93;8.90;;;;;;;11.21;100.00;102395.06;4985620;28;20081;-91
2023/04/16 13:16:41;;;;;;;15.90;8.83;;;;;;;11.24;100.00;102399.13;4996094;28;20022;-90
2023/04/16 13:19:08;;;;;;;14.20;7.90;;;;;;;11.27;100.00;102393.34;4997263;28;20038;-90
2023/04/16 13:21:33;;;;;;;14.95;8.10;;;;;;;11.35;100.00;102394.91;5008851;28;20042;-91
2023/04/16 13:23:59;;;;;;;18.57;8.43;;;;;;;11.28;100.00;102397.66;4979194;28;20023;-91
2023/04/16 13:26:25;;;;;;;13.30;8.60;;;;;;;11.19;100.00;102393.63;5007372;28;20581;-90
2023/04/16 13:28:50;;;;;;;16.33;8.17;;;;;;;11.30;100.00;102403.63;4996615;28;20120;-93
2023/04/16 13:31:18;;;;;;;13.60;8.13;;;;;;;11.46;100.00;102398.69;5018614;28;20088;-93
2023/04/16 13:36:18;;;;;;;15.20;7.37;;;;;;;11.43;100.00;102370.41;4992766;28;20310;-94
2023/04/16 13:38:44;;;;;;;13.95;8.18;;;;;;;11.71;100.00;102381.63;4988512;28;20129;-90
2023/04/16 13:41:36;;;;;;;10.67;7.43;;;;;;;12.38;100.00;102396.81;5002007;28;20030;-90
2023/04/16 13:44:02;;;;;;;12.57;7.70;;;;;;;12.65;100.00;102385.63;4997126;28;20034;-94
2023/04/16 13:46:49;;;;;;;;;;;;;;;;;;;;;
2023/04/16 13:49:33;;;;;;;8.80;6.70;;;;;;;13.31;99.51;102371.97;4977622;28;20034;-92
2023/04/16 13:51:59;;;;;;;9.85;7.30;;;;;;;13.72;96.17;102399.72;4977902;28;20030;-90
2023/04/16 13:57:25;;;;;;;12.95;6.78;;;;;;;13.65;95.75;102368.59;4993256;28;20442;-92
2023/04/16 14:03:01;;;;;;;13.45;6.97;;;;;;;14.22;95.03;102389.28;5093197;23;20117;-92
2023/04/16 14:05:56;;;;;;;9.73;6.70;;;;;;;14.22;91.96;102378.50;5003775;28;20045;-90
2023/04/16 14:08:27;;;;;;;10.57;6.90;;;;;;;14.23;90.38;102366.66;4963293;28;20565;-92
2023/04/16 14:11:17;;;;;;;8.60;6.90;;;;;;;14.43;92.66;102387.72;4987941;28;20116;-90
2023/04/16 14:13:49;;;;;;;11.27;7.27;;;;;;;14.41;89.67;102389.03;5001412;28;20323;-90
2023/04/16 14:16:42;;;;;;;15.85;7.10;;;;;;;14.47;91.10;102394.28;5009687;28;20025;-88
2023/04/16 14:22:22;;;;;;;13.45;8.10;;;;;;;14.47;89.98;102391.56;5354287;22;20050;-94
2023/04/16 14:24:54;;;;;;;13.43;8.48;;;;;;;14.33;88.96;102358.72;4993688;28;20038;-90
2023/04/16 14:27:19;;;;;;;12.43;7.75;;;;;;;14.57;89.50;102382.00;4939480;28;20047;-92
2023/04/16 14:29:45;;;;;;;15.53;8.40;;;;;;;14.64;87.74;102380.75;4974691;28;20033;-91
2023/04/16 14:32:11;;;;;;;17.17;8.20;;;;;;;14.72;86.73;102384.94;4991573;28;20030;-93
2023/04/16 14:34:36;;;;;;;13.85;7.88;;;;;;;14.54;87.64;102392.19;4992115;28;20170;-94
2023/04/16 14:37:02;;;;;;;18.37;8.23;;;;;;;14.31;87.48;102395.09;4976605;28;20029;-92
2023/04/16 14:39:28;;;;;;;14.95;8.15;;;;;;;14.05;89.38;102391.94;4978222;28;20459;-95
2023/04/16 14:41:56;;;;;;;12.83;8.67;;;;;;;13.71;91.67;102387.31;4978154;28;20062;-92
2023/04/16 14:44:21;;;;;;;17.35;8.68;;;;;;;13.44;92.56;102384.34;4975667;28;20026;-96
2023/04/16 14:46:47;;;;;;;12.87;8.03;;;;;;;13.33;93.70;102386.81;4976301;28;20086;-95
2023/04/16 14:49:13;;;;;;;17.58;8.85;;;;;;;13.17;94.25;102371.41;4979944;28;20092;-95
2023/04/16 15:01:47;;;;;;;15.75;8.32;;;;;;;13.83;93.40;102372.97;5476158;23;20057;-94
2023/04/16 15:05:02;;;;;;;15.32;7.93;;;;;;;13.88;93.16;102376.56;5000813;28;20070;-96
2023/04/16 15:07:49;;;;;;;14.63;8.52;;;;;;;13.64;92.75;102381.25;4990546;28;20380;-96
2023/04/16 15:10:15;;;;;;;16.67;9.02;;;;;;;13.24;92.35;102352.44;4978526;28;20086;-95
2023/04/16 15:12:40;;;;;;;18.15;9.07;;;;;;;13.03;94.51;102339.41;4998437;28;20033;-95
2023/04/16 15:15:38;;;;;;;;;;;;;;;;;;;;;
2023/04/16 15:21:12;;;;;;;15.87;9.33;;;;;;;13.10;95.37;102350.03;4934803;28;20077;-91
2023/04/16 15:23:37;;;;;;;14.70;9.17;;;;;;;13.22;94.42;102359.94;5011014;28;20312;-92
2023/04/16 15:26:11;;;;;;;17.42;9.55;;;;;;;13.23;94.39;102372.34;4982598;28;20054;-92
2023/04/16 15:28:43;;;;;;;13.20;9.07;;;;;;;13.02;94.18;102351.22;4986567;28;20081;-96
2023/04/16 15:31:08;;;;;;;17.83;9.17;;;;;;;12.93;94.76;102374.13;4996778;28;20293;-89
2023/04/16 15:33:34;;;;;;;20.17;9.93;;;;;;;12.78;96.25;102380.00;5003054;28;20029;-91
2023/04/16 15:35:59;;;;;;;16.43;9.93;;;;;;;12.75;96.78;102375.09;4990869;28;20022;-93
2023/04/16 15:38:25;;;;;;;16.80;9.50;;;;;;;12.65;97.46;102380.22;4977183;28;20037;-94
2023/04/16 15:40:51;;;;;;;17.40;10.85;;;;;;;12.42;98.32;102374.63;4987511;28;20077;-90
2023/04/16 15:43:16;;;;;;;18.23;10.63;;;;;;;12.34;99.89;102368.75;4996471;28;20053;-94
2023/04/16 15:45:41;;;;;;;19.00;10.63;;;;;;;12.52;99.62;102360.59;4994965;28;20666;-92
2023/04/16 15:48:07;;;;;;;21.57;10.50;;;;;;;12.57;98.32;102374.16;4997603;28;20069;-94
2023/04/16 15:50:32;;;;;;;18.07;10.30;;;;;;;12.50;98.17;102370.75;5002127;28;20026;-96
2023/04/16 15:52:58;;;;;;;18.90;10.87;;;;;;;12.49;99.30;102373.69;5007396;28;20044;-95
2023/04/16 15:55:25;;;;;;;21.63;10.67;;;;;;;12.64;99.40;102376.75;4999425;28;20701;-95
2023/04/16 15:57:51;;;;;;;21.05;10.90;;;;;;;12.69;97.79;102381.41;4990812;28;20031;-96
2023/04/16 16:00:17;;;;;;;21.60;11.85;;;;;;;12.65;97.69;102386.44;4981320;28;20029;-93
2023/04/16 16:02:46;;;;;;;20.13;11.03;;;;;;;12.50;99.13;102373.44;4987978;28;20023;-94
2023/04/16 16:09:10;;;;;;;26.02;11.32;;;;;;;12.02;100.00;102351.06;5007581;28;20085;-96
2023/04/16 16:11:39;;;;;;;25.85;11.10;;;;;;;12.06;100.00;102364.84;5003874;28;20446;-92
2023/04/16 16:14:04;;;;;;;20.70;11.18;;;;;;;12.18;100.00;102378.31;5065768;23;20119;-93
2023/04/16 16:16:38;;;;;;;20.08;11.13;;;;;;;12.09;100.00;102361.69;5009100;28;20740;-96
2023/04/16 16:19:04;;;;;;;21.37;11.53;;;;;;;11.95;100.00;102350.31;5010619;28;20029;-94
2023/04/16 16:21:31;;;;;;;19.13;11.53;;;;;;;11.89;100.00;102351.22;5002133;28;20740;-92
2023/04/16 16:27:00;;;;;;;19.98;11.13;;;;;;;12.19;100.00;102375.41;4933300;29;20139;-94
2023/04/16 16:29:25;;;;;;;21.17;10.97;;;;;;;12.17;100.00;102374.81;5005630;28;20041;-90
2023/04/16 16:31:54;;;;;;;23.77;12.30;;;;;;;12.11;100.00;102359.59;5016185;28;20297;-91
2023/04/16 16:34:22;;;;;;;23.80;12.43;;;;;;;12.16;100.00;102373.19;5019813;28;20034;-92
2023/04/16 16:36:50;;;;;;;23.30;11.52;;;;;;;12.08;100.00;102357.38;5013350;28;20030;-89
2023/04/16 16:39:23;;;;;;;19.57;11.27;;;;;;;11.97;100.00;102372.38;5016273;28;20120;-93
2023/04/16 16:42:27;;;;;;;26.35;11.65;;;;;;;11.79;100.00;102367.91;5015397;28;20025;-91
2023/04/16 16:48:34;;;;;;;20.30;12.05;;;;;;;11.63;100.00;102369.34;4947285;28;20047;-93
2023/04/16 16:50:59;;;;;;;22.52;11.63;;;;;;;11.47;100.00;102371.59;4993772;28;20031;-89
2023/04/16 16:53:49;;;;;;;23.63;11.73;;;;;;;11.47;100.00;102387.72;4977207;28;20154;-92
2023/04/16 16:56:15;;;;;;;23.73;12.10;;;;;;;11.33;100.00;102359.41;4999312;28;20042;-95
2023/04/16 16:58:53;;;;;;;23.53;11.93;;;;;;;11.29;100.00;102364.41;4988174;28;20117;-93
2023/04/16 17:01:50;;;;;;;22.15;11.43;;;;;;;11.15;100.00;102346.81;5723714;23;20042;-94
2023/04/16 17:04:28;;;;;;;19.27;11.00;;;;;;;11.20;100.00;102352.31;4972477;28;20046;-96
2023/04/16 17:14:26;;;;;;;21.45;10.95;;;;;;;11.14;100.00;102388.09;5008676;28;20027;-95
2023/04/16 17:17:13;;;;;;;24.92;12.05;;;;;;;10.98;100.00;102368.88;5007978;28;20038;-95
2023/04/16 17:19:39;;;;;;;21.10;11.57;;;;;;;10.98;100.00;102358.13;5389805;23;20069;-94
2023/04/16 17:32:47;;;;;;;20.65;12.13;;;;;;;10.65;100.00;102371.91;5415723;23;20054;-96
2023/04/16 17:35:34;;;;;;;23.50;13.23;;;;;;;10.81;100.00;102392.78;5028193;28;20111;-96
2023/04/16 17:38:06;;;;;;;21.17;12.33;;;;;;;10.72;100.00;102378.84;4998282;28;20764;-96
2023/04/16 17:41:02;;;;;;;21.70;12.48;;;;;;;10.54;100.00;102360.03;5020820;28;20113;-96
2023/04/16 17:44:14;;;;;;;23.58;12.80;;;;;;;10.40;100.00;102357.47;4999225;28;20045;-95
2023/04/16 17:46:41;;;;;;;22.60;12.45;;;;;;;10.55;100.00;102391.16;4982158;28;20034;-96
2023/04/16 17:49:22;;;;;;;24.33;13.48;;;;;;;10.39;100.00;102382.63;4996551;28;20050;-95
2023/04/16 17:52:09;;;;;;;23.15;12.48;;;;;;;10.43;100.00;102397.22;4999244;28;20054;-94
2023/04/16 17:54:43;;;;;;;27.75;13.07;;;;;;;10.13;100.00;102363.00;4996993;28;20114;-92
2023/04/16 18:09:33;;;;;;;29.48;14.82;;;;;;;9.96;100.00;102362.69;4950735;29;20095;-93
2023/04/16 18:12:10;;;;;;;26.27;13.57;;;;;;;10.06;100.00;102390.84;4910374;28;20039;-94
2023/04/16 18:14:48;;;;;;;26.15;13.82;;;;;;;9.90;100.00;102376.09;4994194;28;20470;-92
2023/04/16 18:17:34;;;;;;;25.92;13.20;;;;;;;9.91;100.00;102383.09;4974837;28;20087;-91
2023/04/16 18:54:03;;;;;;;36.58;15.60;;;;;;;9.77;100.00;102430.56;5125332;23;20101;-96
2023/04/16 18:56:35;;;;;;;27.45;13.80;;;;;;;9.63;100.00;102424.44;4999206;28;20031;-92
2023/04/16 18:59:02;;;;;;;30.85;16.95;;;;;;;9.47;100.00;102407.84;4994132;28;20089;-93
2023/04/16 19:01:30;;;;;;;25.10;15.13;;;;;;;9.50;100.00;102422.63;4976788;28;20052;-93
2023/04/16 19:04:04;;;;;;;23.53;12.83;;;;;;;9.48;100.00;102420.19;4998511;28;20353;-94
2023/04/16 19:06:33;;;;;;;21.52;13.60;;;;;;;9.61;100.00;102439.88;4994544;28;20593;-92
2023/04/16 19:09:07;;;;;;;25.85;13.35;;;;;;;9.40;100.00;102413.19;4994420;28;20101;-91